Time;durP1;ratioP1;P1;durP2;ratioP2;P2;SDS_P1;SDS_P2;PMS_P1;PMS_P2;Temp;Humidity;BMP_temperature;BMP_pressure;BME280_temperature;BME280_humidity;BME280_pressure;Samples;Min_cycle;Max_cycle;Signal;HPM_P1;HPM_P2
2021/05/02 04:01:32;;;;;;;8.95;8.65;;;6.00;99.90;;;;;;5821069;22;88442;-87
2021/05/02 04:04:02;;;;;;;6.78;6.57;;;6.10;99.90;;;;;;4966594;28;88180;-83
2021/05/02 04:06:28;;;;;;;6.30;6.10;;;6.10;99.90;;;;;;4968779;28;87354;-82
2021/05/02 04:08:54;;;;;;;6.10;5.90;;;6.00;99.90;;;;;;4980078;28;87820;-84
2021/05/02 04:11:20;;;;;;;6.97;6.78;;;6.10;99.90;;;;;;4979319;28;86942;-84
2021/05/02 04:13:46;;;;;;;5.93;5.72;;;6.10;99.90;;;;;;4973081;28;86956;-81
2021/05/02 04:16:16;;;;;;;6.30;6.10;;;6.20;99.90;;;;;;4984880;28;89168;-80
2021/05/02 04:18:42;;;;;;;6.82;6.63;;;6.20;99.90;;;;;;4976871;28;87903;-82
2021/05/02 04:21:10;;;;;;;6.75;6.55;;;6.20;99.90;;;;;;4967283;28;86893;-82
2021/05/02 04:23:35;;;;;;;8.07;7.78;;;6.20;99.90;;;;;;4976599;28;86506;-82
2021/05/02 04:26:01;;;;;;;8.23;7.93;;;;;;;;;;4970733;28;87331;-83
2021/05/02 04:28:27;;;;;;;8.10;7.80;;;6.20;99.90;;;;;;4981503;28;87002;-84
2021/05/02 04:30:53;;;;;;;8.25;7.95;;;6.10;99.90;;;;;;4982899;28;87094;-84
2021/05/02 04:33:19;;;;;;;8.32;8.02;;;6.10;99.90;;;;;;4985789;28;86209;-83
2021/05/02 04:35:45;;;;;;;8.82;8.52;;;;;;;;;;4970318;28;88144;-86
2021/05/02 04:38:11;;;;;;;8.88;8.57;;;;;;;;;;4985454;28;88547;-84
2021/05/02 04:40:37;;;;;;;9.05;8.65;;;6.20;99.90;;;;;;4974412;28;87793;-84
2021/05/02 04:43:02;;;;;;;9.05;8.65;;;6.30;99.90;;;;;;4977178;28;86710;-82
2021/05/02 04:45:28;;;;;;;10.15;9.75;;;6.30;99.90;;;;;;4984633;28;87496;-80
2021/05/02 04:47:54;;;;;;;9.70;9.35;;;6.30;99.90;;;;;;4984797;28;86988;-81
2021/05/02 04:50:20;;;;;;;8.27;7.97;;;6.20;99.90;;;;;;5063050;22;87031;-82
2021/05/02 04:52:46;;;;;;;10.32;9.93;;;6.20;99.90;;;;;;4951546;28;86334;-85
2021/05/02 04:55:12;;;;;;;8.55;8.25;;;6.00;99.90;;;;;;4938481;28;86912;-85
2021/05/02 04:57:38;;;;;;;7.75;7.47;;;6.00;99.90;;;;;;4952545;28;87053;-86
2021/05/02 05:00:06;;;;;;;10.32;9.93;;;6.10;99.90;;;;;;4950380;28;86947;-86
2021/05/02 05:02:32;;;;;;;9.10;8.80;;;6.10;99.90;;;;;;4938054;28;87165;-84
2021/05/02 05:04:57;;;;;;;10.07;9.68;;;6.10;99.90;;;;;;4930495;28;88211;-84
2021/05/02 05:07:23;;;;;;;9.50;9.10;;;6.20;99.90;;;;;;4935757;28;87162;-81
2021/05/02 05:09:49;;;;;;;11.77;11.38;;;6.20;99.90;;;;;;4935849;28;87157;-85
2021/05/02 05:12:14;;;;;;;10.68;10.25;;;6.30;99.90;;;;;;4930678;28;86603;-84
2021/05/02 05:14:40;;;;;;;10.18;9.80;;;6.40;99.90;;;;;;4930481;28;88111;-82
2021/05/02 05:17:06;;;;;;;11.15;10.68;;;6.40;99.90;;;;;;4930806;28;87442;-82
2021/05/02 05:19:31;;;;;;;10.63;10.23;;;6.30;99.90;;;;;;4938575;28;86946;-84
2021/05/02 05:21:57;;;;;;;9.52;9.23;;;6.30;99.90;;;;;;4931478;28;85980;-84
2021/05/02 05:24:23;;;;;;;10.90;10.40;;;6.30;99.90;;;;;;4935424;28;87205;-84
2021/05/02 05:26:49;;;;;;;9.85;9.35;;;6.40;99.90;;;;;;4940152;28;86984;-82
2021/05/02 05:29:14;;;;;;;10.15;9.85;;;6.40;99.90;;;;;;4931839;28;87698;-83
2021/05/02 05:31:40;;;;;;;10.68;10.27;;;6.40;99.90;;;;;;4933081;28;87127;-85
2021/05/02 05:34:06;;;;;;;8.35;7.95;;;6.40;99.90;;;;;;4948368;28;86915;-84
2021/05/02 05:36:31;;;;;;;9.85;9.45;;;6.40;99.90;;;;;;4950561;28;86807;-84
2021/05/02 05:38:57;;;;;;;10.50;10.10;;;;;;;;;;4931060;28;86856;-84
2021/05/02 05:41:23;;;;;;;12.63;12.13;;;6.40;99.90;;;;;;4935965;28;86741;-84
2021/05/02 05:43:48;;;;;;;9.88;9.48;;;6.40;99.90;;;;;;4933012;28;86880;-85
2021/05/02 05:46:14;;;;;;;12.10;11.55;;;6.50;99.90;;;;;;4939400;28;87377;-84
2021/05/02 05:48:41;;;;;;;10.45;10.05;;;6.60;99.90;;;;;;4942505;28;86899;-85
2021/05/02 05:51:08;;;;;;;12.05;11.52;;;6.70;99.90;;;;;;4937058;28;86714;-84
2021/05/02 05:53:37;;;;;;;7.70;7.40;;;6.70;99.90;;;;;;4929502;28;87933;-83
2021/05/02 05:56:03;;;;;;;8.52;8.23;;;6.70;99.90;;;;;;4935090;28;88844;-87
2021/05/02 05:58:31;;;;;;;8.27;7.97;;;6.60;99.90;;;;;;4932707;28;86980;-83
2021/05/02 06:00:58;;;;;;;8.80;8.48;;;6.70;99.90;;;;;;4933717;28;86840;-86
2021/05/02 06:03:24;;;;;;;10.52;10.13;;;6.80;99.90;;;;;;4940231;28;88487;-84
2021/05/02 06:05:50;;;;;;;18.33;17.63;;;6.80;99.90;;;;;;4933301;28;87012;-84
2021/05/02 06:08:18;;;;;;;18.20;17.50;;;6.70;99.90;;;;;;4930968;28;86904;-85
2021/05/02 06:10:44;;;;;;;15.20;14.60;;;6.70;99.90;;;;;;4939682;28;85924;-82
2021/05/02 06:13:09;;;;;;;15.32;14.73;;;6.70;99.90;;;;;;4931394;28;87504;-82
2021/05/02 06:15:35;;;;;;;16.40;15.80;;;6.70;99.90;;;;;;4931972;28;87957;-85
2021/05/02 06:18:01;;;;;;;15.85;15.25;;;6.80;99.90;;;;;;4935265;28;87812;-86
2021/05/02 06:20:27;;;;;;;16.20;15.60;;;6.80;99.90;;;;;;4934162;28;86911;-84
2021/05/02 06:22:53;;;;;;;14.40;13.80;;;6.90;99.90;;;;;;4939095;28;86969;-83
2021/05/02 06:25:19;;;;;;;16.27;15.68;;;6.90;99.90;;;;;;4933273;28;87936;-87
2021/05/02 06:27:45;;;;;;;17.95;17.25;;;6.90;99.90;;;;;;4932052;28;86919;-87
2021/05/02 06:30:12;;;;;;;18.10;17.40;;;7.00;99.90;;;;;;4934622;28;86881;-85
2021/05/02 06:32:38;;;;;;;13.68;13.13;;;7.00;99.90;;;;;;4933472;28;88307;-88
2021/05/02 06:35:05;;;;;;;10.25;9.85;;;6.90;99.90;;;;;;4937170;28;86694;-85
2021/05/02 06:37:31;;;;;;;10.90;10.40;;;6.90;99.90;;;;;;4944471;28;86436;-82
2021/05/02 06:39:57;;;;;;;11.02;10.63;;;7.00;99.90;;;;;;4952430;28;87792;-80
2021/05/02 06:42:37;;;;;;;9.43;8.93;;;7.10;99.90;;;;;;4947631;28;88094;-81
2021/05/02 06:45:03;;;;;;;10.77;10.27;;;7.10;99.90;;;;;;4916017;28;89552;-84
2021/05/02 06:47:29;;;;;;;7.82;7.43;;;7.20;99.90;;;;;;4922096;28;87010;-82
2021/05/02 06:49:55;;;;;;;9.20;8.50;;;7.20;99.90;;;;;;4948037;28;86258;-81
2021/05/02 06:52:22;;;;;;;8.02;7.53;;;7.30;99.90;;;;;;4930023;28;88230;-80
2021/05/02 06:54:48;;;;;;;9.32;8.75;;;7.30;99.90;;;;;;4938651;28;86879;-81
2021/05/02 06:57:14;;;;;;;10.55;9.95;;;7.30;99.90;;;;;;4928279;28;86413;-81
2021/05/02 06:59:40;;;;;;;17.55;16.63;;;7.50;99.90;;;;;;4930416;28;86252;-85
2021/05/02 07:02:07;;;;;;;14.43;13.65;;;7.50;99.90;;;;;;4931819;28;89049;-84
2021/05/02 07:04:34;;;;;;;15.55;14.75;;;7.70;99.90;;;;;;4931603;28;88661;-85
2021/05/02 07:07:01;;;;;;;16.00;15.13;;;7.90;99.90;;;;;;4937109;28;87846;-83
2021/05/02 07:09:27;;;;;;;10.85;10.15;;;7.90;99.90;;;;;;4942811;28;87157;-83
2021/05/02 07:11:56;;;;;;;12.65;11.85;;;7.90;99.90;;;;;;4931017;28;87482;-86
2021/05/02 07:14:22;;;;;;;9.85;9.15;;;8.00;99.90;;;;;;4926837;28;87019;-85
2021/05/02 07:16:48;;;;;;;9.95;9.27;;;;;;;;;;4930486;28;86795;-84
2021/05/02 07:19:14;;;;;;;12.45;11.55;;;8.10;99.90;;;;;;4930542;28;86886;-84
2021/05/02 07:21:42;;;;;;;10.90;10.10;;;8.10;99.90;;;;;;4928737;28;87281;-84
2021/05/02 07:24:08;;;;;;;13.48;12.57;;;8.20;99.90;;;;;;4928786;28;87078;-83
2021/05/02 07:26:34;;;;;;;15.85;15.02;;;8.20;99.90;;;;;;4910320;28;86859;-83
2021/05/02 07:29:22;;;;;;;17.42;16.42;;;8.20;99.90;;;;;;4928408;28;86823;-83
2021/05/02 07:32:05;;;;;;;12.27;11.52;;;8.30;99.90;;;;;;4926846;28;87876;-85
2021/05/02 07:34:31;;;;;;;11.05;10.25;;;8.30;99.90;;;;;;4922755;28;88225;-82
2021/05/02 07:36:57;;;;;;;12.00;11.20;;;8.20;99.90;;;;;;4927756;28;86685;-87
2021/05/02 07:39:23;;;;;;;13.13;12.23;;;8.20;99.90;;;;;;4926595;28;86937;-81
2021/05/02 07:41:55;;;;;;;11.65;10.75;;;8.30;99.90;;;;;;4927195;28;87212;-84
2021/05/02 07:44:20;;;;;;;12.73;11.82;;;8.30;99.90;;;;;;4908640;28;87076;-84
2021/05/02 07:46:47;;;;;;;11.38;10.45;;;8.10;99.90;;;;;;4926316;28;86831;-83
2021/05/02 07:49:13;;;;;;;11.40;10.52;;;;;;;;;;4926885;28;86205;-84
2021/05/02 07:51:39;;;;;;;9.70;8.93;;;8.20;99.90;;;;;;4928212;28;87852;-86
2021/05/02 07:54:06;;;;;;;9.27;8.68;;;8.20;99.90;;;;;;4927583;28;86731;-82
2021/05/02 07:56:33;;;;;;;10.13;9.50;;;8.20;99.90;;;;;;4930708;28;87866;-86
2021/05/02 07:59:09;;;;;;;8.80;8.20;;;8.20;99.90;;;;;;4915977;28;86912;-83
2021/05/02 08:01:37;;;;;;;9.13;8.35;;;8.20;99.90;;;;;;4938772;28;87204;-82
2021/05/02 08:04:03;;;;;;;8.80;8.30;;;8.20;99.90;;;;;;4932665;28;88243;-82
2021/05/02 08:06:28;;;;;;;8.10;7.60;;;8.30;99.90;;;;;;4929777;28;87007;-84
2021/05/02 08:08:56;;;;;;;10.13;9.43;;;8.50;99.90;;;;;;4929731;28;86527;-89
2021/05/02 08:11:23;;;;;;;9.70;9.05;;;8.70;99.90;;;;;;4927917;28;88150;-85
2021/05/02 08:13:48;;;;;;;8.18;7.45;;;8.90;99.90;;;;;;4929330;28;86191;-88
2021/05/02 08:16:16;;;;;;;7.82;7.32;;;9.10;99.90;;;;;;4929407;28;86130;-84
2021/05/02 08:18:44;;;;;;;10.48;9.77;;;9.20;99.90;;;;;;4932739;28;87049;-84
2021/05/02 08:21:10;;;;;;;9.38;8.73;;;9.30;99.90;;;;;;4931327;28;89128;-86
2021/05/02 08:23:42;;;;;;;8.60;8.07;;;9.40;99.90;;;;;;4933031;28;87955;-85
2021/05/02 08:26:07;;;;;;;8.90;8.40;;;9.60;99.90;;;;;;4931315;28;87012;-85
2021/05/02 08:28:39;;;;;;;9.27;8.60;;;9.80;99.90;;;;;;4932339;28;86849;-84
2021/05/02 08:31:05;;;;;;;9.95;9.25;;;9.90;99.90;;;;;;4937472;28;87049;-85
2021/05/02 08:33:30;;;;;;;9.18;8.35;;;9.80;99.90;;;;;;4910401;28;92086;-81
2021/05/02 08:35:56;;;;;;;9.68;8.88;;;9.80;99.90;;;;;;4931920;28;86879;-85
2021/05/02 08:38:22;;;;;;;9.45;8.75;;;9.70;99.90;;;;;;4936335;28;86195;-83
2021/05/02 08:40:48;;;;;;;10.38;9.73;;;9.70;99.90;;;;;;4931309;28;87458;-83
2021/05/02 08:43:15;;;;;;;10.20;9.60;;;;;;;;;;4936950;28;87758;-84
2021/05/02 08:45:41;;;;;;;12.07;11.38;;;;;;;;;;4938965;28;88065;-84
2021/05/02 08:48:07;;;;;;;10.40;9.77;;;;;;;;;;4936726;28;87043;-85
2021/05/02 08:50:33;;;;;;;11.90;11.20;;;;;;;;;;4934953;28;88159;-85
2021/05/02 08:52:59;;;;;;;10.85;10.05;;;;;;;;;;4931195;28;90814;-83
2021/05/02 08:55:25;;;;;;;10.25;9.35;;;;;;;;;;4936757;28;86697;-81
2021/05/02 08:57:51;;;;;;;10.80;9.95;;;;;;;;;;4927318;28;87005;-83
2021/05/02 09:00:17;;;;;;;12.40;11.60;;;10.40;99.90;;;;;;4925274;28;88054;-82
2021/05/02 09:03:01;;;;;;;13.05;12.02;;;10.30;99.90;;;;;;4927091;28;87070;-82
2021/05/02 09:05:27;;;;;;;12.35;11.55;;;;;;;;;;4927875;28;87005;-84
2021/05/02 09:07:53;;;;;;;12.95;11.88;;;;;;;;;;4922881;28;86685;-85
2021/05/02 09:10:21;;;;;;;12.88;11.98;;;9.70;99.90;;;;;;4940262;28;88226;-82
2021/05/02 09:13:04;;;;;;;9.50;8.90;;;9.70;99.90;;;;;;4934819;28;88233;-84
2021/05/02 09:15:31;;;;;;;9.25;8.55;;;9.70;99.90;;;;;;4913141;28;86918;-83
2021/05/02 09:18:23;;;;;;;10.52;9.82;;;9.70;99.90;;;;;;4929973;28;87057;-83
2021/05/02 09:20:54;;;;;;;9.48;8.77;;;9.60;99.90;;;;;;4924362;28;88402;-84
2021/05/02 09:23:20;;;;;;;10.02;9.23;;;9.50;99.90;;;;;;4932914;28;86985;-84
2021/05/02 09:25:54;;;;;;;10.60;9.73;;;9.30;99.90;;;;;;4932149;28;86922;-84
2021/05/02 09:28:43;;;;;;;22.40;12.88;;;9.30;99.90;;;;;;4932670;28;85526;-83
2021/05/02 09:31:15;;;;;;;12.88;11.70;;;9.40;99.90;;;;;;4916638;28;88883;-86
2021/05/02 09:33:41;;;;;;;10.98;10.07;;;9.40;99.90;;;;;;4915821;28;89570;-85
2021/05/02 09:36:13;;;;;;;10.30;9.60;;;9.50;99.90;;;;;;4911138;28;87794;-84
2021/05/02 09:38:39;;;;;;;12.85;11.93;;;9.60;99.90;;;;;;4933315;28;86922;-84
2021/05/02 09:41:07;;;;;;;11.98;11.13;;;9.70;99.90;;;;;;4949988;28;87221;-84
2021/05/02 09:43:39;;;;;;;10.18;9.35;;;9.60;99.90;;;;;;4940886;28;87626;-82
2021/05/02 09:46:25;;;;;;;11.50;10.70;;;9.60;99.90;;;;;;4931870;28;86282;-84
2021/05/02 09:49:02;;;;;;;9.82;9.13;;;9.70;99.90;;;;;;4931280;28;86573;-84
2021/05/02 09:51:31;;;;;;;13.13;12.32;;;9.50;99.90;;;;;;4929573;28;88310;-83
2021/05/02 09:54:11;;;;;;;13.27;12.43;;;9.10;99.90;;;;;;4937392;28;87489;-84
2021/05/02 09:57:02;;;;;;;12.18;11.38;;;9.50;99.90;;;;;;4926267;28;86750;-83
2021/05/02 09:59:31;;;;;;;7.80;7.20;;;9.50;99.90;;;;;;4930292;28;87074;-85
2021/05/02 10:02:15;;;;;;;8.60;8.00;;;9.60;99.90;;;;;;4930627;28;88542;-83
2021/05/02 10:04:55;;;;;;;10.95;10.20;;;9.90;99.90;;;;;;4926576;28;87242;-83
2021/05/02 10:07:28;;;;;;;11.63;10.82;;;10.50;99.90;;;;;;4935278;28;87206;-84
2021/05/02 10:09:54;;;;;;;12.02;11.23;;;10.50;99.90;;;;;;4916907;28;86997;-85
2021/05/02 10:12:21;;;;;;;10.63;10.02;;;10.60;99.90;;;;;;4932869;28;87041;-84
2021/05/02 10:14:48;;;;;;;9.02;8.43;;;10.60;99.90;;;;;;4933331;28;87152;-83
2021/05/02 10:17:14;;;;;;;12.57;11.88;;;11.10;99.90;;;;;;4929343;28;86552;-83
2021/05/02 10:19:40;;;;;;;14.73;13.95;;;11.40;99.90;;;;;;4925193;28;86358;-85
2021/05/02 10:22:07;;;;;;;11.93;11.32;;;11.80;99.90;;;;;;4925066;28;87011;-84
2021/05/02 10:24:33;;;;;;;48.92;46.85;;;;;;;;;;4927201;28;87001;-85
2021/05/02 10:26:59;;;;;;;17.02;16.27;;;;;;;;;;4931911;28;87898;-83
2021/05/02 10:29:29;;;;;;;15.63;14.93;;;12.40;99.90;;;;;;4931932;28;86875;-82
2021/05/02 10:32:03;;;;;;;11.32;10.60;;;13.30;99.90;;;;;;4931126;28;87103;-83
2021/05/02 10:34:34;;;;;;;12.68;12.07;;;12.70;99.90;;;;;;4910765;28;88753;-82
2021/05/02 10:37:29;;;;;;;12.90;12.30;;;11.70;99.90;;;;;;4937971;28;87036;-84
2021/05/02 10:40:11;;;;;;;9.63;9.10;;;12.30;97.50;;;;;;4932128;28;86571;-84
2021/05/02 10:42:42;;;;;;;8.25;7.75;;;12.10;98.70;;;;;;4933154;28;88728;-84
2021/05/02 10:45:30;;;;;;;9.52;9.02;;;11.80;98.50;;;;;;4938059;28;86982;-84
2021/05/02 10:48:00;;;;;;;10.38;9.88;;;11.80;99.90;;;;;;4926109;28;87073;-86
2021/05/02 10:50:40;;;;;;;12.17;11.57;;;11.70;98.60;;;;;;4928327;28;86534;-85
2021/05/02 10:53:11;;;;;;;7.22;6.82;;;11.70;98.90;;;;;;4931970;28;88164;-85
2021/05/02 10:55:52;;;;;;;8.35;7.72;;;11.80;99.80;;;;;;4938524;28;87912;-82
2021/05/02 10:58:33;;;;;;;7.57;7.07;;;12.10;99.90;;;;;;4944948;28;86207;-83
2021/05/02 11:01:52;;;;;;;9.20;8.60;;;12.20;99.40;;;;;;4953822;28;86109;-85
2021/05/02 11:04:41;;;;;;;9.48;8.88;;;12.50;99.90;;;;;;4949801;28;87242;-86
2021/05/02 11:07:07;;;;;;;10.13;9.55;;;12.90;95.50;;;;;;4924984;28;86614;-83
2021/05/02 11:09:53;;;;;;;12.70;12.02;;;13.50;94.80;;;;;;4967089;28;86250;-82
2021/05/02 11:12:27;;;;;;;21.25;20.33;;;14.50;93.20;;;;;;4963706;28;85371;-83
2021/05/02 11:14:52;;;;;;;10.23;9.63;;;16.00;91.70;;;;;;4928193;28;87814;-84
2021/05/02 11:17:20;;;;;;;26.85;25.67;;;17.30;88.10;;;;;;4927193;28;87122;-85
2021/05/02 11:19:47;;;;;;;35.47;33.92;;;20.00;73.20;;;;;;4921147;28;87887;-85
2021/05/02 11:22:14;;;;;;;26.20;25.00;;;20.30;70.30;;;;;;4921842;28;86781;-83
2021/05/02 11:24:40;;;;;;;23.10;22.10;;;21.90;63.80;;;;;;4916824;28;87017;-84
2021/05/02 11:27:14;;;;;;;27.60;26.40;;;21.50;55.30;;;;;;4920636;28;89231;-83
2021/05/02 11:32:36;;;;;;;27.40;26.17;;;24.30;49.20;;;;;;4928858;28;87180;-86
2021/05/02 11:35:06;;;;;;;31.08;29.77;;;24.50;54.60;;;;;;4928326;28;87460;-85
2021/05/02 11:38:10;;;;;;;29.23;28.02;;;24.90;46.20;;;;;;4930103;28;87039;-85
2021/05/02 11:40:37;;;;;;;27.27;26.13;;;25.40;43.10;;;;;;4925513;28;86941;-88
2021/05/02 11:43:06;;;;;;;106.82;102.65;;;25.80;43.00;;;;;;4927511;28;86883;-84
2021/05/02 11:45:44;;;;;;;21.63;20.73;;;26.10;40.10;;;;;;4927675;28;88039;-82
2021/05/02 11:48:36;;;;;;;17.95;17.17;;;24.60;40.70;;;;;;4927288;28;87418;-86
2021/05/02 11:51:08;;;;;;;27.08;25.92;;;23.30;43.50;;;;;;4918888;28;87260;-86
2021/05/02 11:53:34;;;;;;;24.95;23.85;;;;;;;;;;4934975;28;87277;-83
2021/05/02 11:56:00;;;;;;;19.75;18.85;;;20.50;51.70;;;;;;4922168;28;88138;-86
2021/05/02 11:58:27;;;;;;;50.17;48.00;;;20.20;54.00;;;;;;4921665;28;87851;-83
2021/05/02 12:00:53;;;;;;;61.45;58.95;;;20.70;54.30;;;;;;4930981;28;86963;-82
2021/05/02 12:03:33;;;;;;;28.65;27.35;;;19.50;53.80;;;;;;4925137;28;86318;-81
2021/05/02 12:05:59;;;;;;;33.20;31.77;;;20.50;48.80;;;;;;4924766;28;86901;-81
2021/05/02 12:08:26;;;;;;;32.67;31.17;;;21.70;53.60;;;;;;4932144;28;87994;-83
2021/05/02 12:11:04;;;;;;;33.70;32.20;;;21.50;53.60;;;;;;4929225;28;87996;-84
2021/05/02 12:13:38;;;;;;;93.53;89.88;;;21.30;47.10;;;;;;4927333;28;87070;-84
2021/05/02 12:16:11;;;;;;;132.10;126.97;;;21.50;47.10;;;;;;4929660;28;87095;-83
2021/05/02 12:18:51;;;;;;;118.72;114.03;;;22.70;45.40;;;;;;4929439;28;87942;-83
2021/05/02 12:21:46;;;;;;;77.40;74.35;;;23.80;44.50;;;;;;4928057;28;86705;-86
2021/05/02 12:24:29;;;;;;;19.08;18.17;;;25.40;41.30;;;;;;4923109;28;87384;-86
2021/05/02 12:26:55;;;;;;;20.10;19.20;;;;;;;;;;4933267;28;86901;-86
2021/05/02 12:29:43;;;;;;;28.95;27.55;;;27.50;35.60;;;;;;4931260;28;87326;-87
2021/05/02 12:32:15;;;;;;;25.15;24.05;;;27.90;36.40;;;;;;4930216;28;86708;-85
2021/05/02 12:34:49;;;;;;;34.78;33.28;;;28.00;36.70;;;;;;4929442;28;86913;-84
2021/05/02 12:37:18;;;;;;;43.38;41.47;;;28.30;35.30;;;;;;4926054;28;88041;-84
2021/05/02 12:39:45;;;;;;;38.90;37.20;;;27.00;32.20;;;;;;4925231;28;89048;-83
2021/05/02 12:42:11;;;;;;;33.25;31.83;;;25.40;36.20;;;;;;4930248;28;87166;-87
2021/05/02 12:44:39;;;;;;;28.98;27.58;;;25.80;39.00;;;;;;4942441;28;87014;-86
2021/05/02 12:47:16;;;;;;;26.45;25.25;;;25.90;36.90;;;;;;4925914;28;87984;-84
2021/05/02 12:49:57;;;;;;;34.05;32.55;;;26.30;35.50;;;;;;4924524;28;87358;-85
2021/05/02 12:52:33;;;;;;;25.67;24.42;;;26.00;36.30;;;;;;4918066;28;86922;-85
2021/05/02 12:55:26;;;;;;;16.48;15.57;;;24.90;36.20;;;;;;4930187;28;86334;-87
2021/05/02 12:57:58;;;;;;;30.88;29.52;;;25.20;36.50;;;;;;4940864;28;87390;-86
2021/05/02 13:01:13;;;;;;;32.65;31.15;;;25.60;36.40;;;;;;4928099;28;86995;-85
2021/05/02 13:03:28;;;;;;;21.25;20.25;;;26.10;35.40;;;;;;4929033;28;87433;-85
2021/05/02 13:06:11;;;;;;;46.42;44.38;;;25.90;34.80;;;;;;4931766;28;86850;-85
2021/05/02 13:08:38;;;;;;;16.83;15.43;;;26.00;33.80;;;;;;4928307;28;86994;-85
2021/05/02 13:11:36;;;;;;;18.15;17.25;;;24.80;37.40;;;;;;4932457;28;87047;-84
2021/05/02 13:14:18;;;;;;;33.13;31.60;;;24.10;36.40;;;;;;4935668;28;86995;-85
2021/05/02 13:16:48;;;;;;;20.33;19.42;;;23.20;40.30;;;;;;4929703;28;87129;-85
2021/05/02 13:19:32;;;;;;;15.18;14.38;;;23.10;37.60;;;;;;4934810;28;87340;-85
2021/05/02 13:22:17;;;;;;;23.25;22.15;;;23.10;38.50;;;;;;4943065;28;87502;-84
2021/05/02 13:25:09;;;;;;;20.10;19.20;;;24.20;37.90;;;;;;4946822;28;87003;-84
2021/05/02 13:27:54;;;;;;;20.65;19.52;;;23.90;38.80;;;;;;4926120;28;87087;-84
2021/05/02 13:30:28;;;;;;;28.38;27.00;;;23.90;36.90;;;;;;4924780;28;88188;-85
2021/05/02 13:33:05;;;;;;;45.35;43.45;;;23.10;37.80;;;;;;4931708;28;89010;-84
2021/05/02 13:35:36;;;;;;;22.98;21.77;;;22.00;38.40;;;;;;4918000;28;86692;-86
2021/05/02 13:38:04;;;;;;;24.80;23.70;;;22.30;39.10;;;;;;4932235;28;87190;-86
2021/05/02 13:40:31;;;;;;;23.98;22.88;;;;;;;;;;4926547;28;88218;-86
2021/05/02 13:42:57;;;;;;;29.33;27.92;;;22.50;37.60;;;;;;4933605;28;88380;-84
2021/05/02 13:45:24;;;;;;;22.85;21.77;;;22.90;37.30;;;;;;4932960;28;87008;-83
2021/05/02 13:47:51;;;;;;;35.72;34.05;;;23.30;38.30;;;;;;4932259;28;86440;-84
2021/05/02 13:50:18;;;;;;;52.03;49.80;;;;;;;;;;4933367;28;87250;-86
2021/05/02 13:52:44;;;;;;;57.40;55.05;;;24.40;35.90;;;;;;4933326;28;87020;-85
2021/05/02 13:55:11;;;;;;;44.15;42.17;;;24.90;36.20;;;;;;4923392;28;87769;-84
2021/05/02 13:57:37;;;;;;;34.55;33.03;;;23.50;36.10;;;;;;4923158;28;87313;-88
2021/05/02 14:00:11;;;;;;;31.65;30.25;;;22.70;36.40;;;;;;4929563;28;86931;-84
2021/05/02 14:02:37;;;;;;;38.10;36.45;;;;;;;;;;4927865;28;87113;-86
2021/05/02 14:05:03;;;;;;;36.75;35.03;;;21.90;37.90;;;;;;4923920;28;87115;-85
2021/05/02 14:07:28;;;;;;;42.50;40.70;;;22.00;38.40;;;;;;4932657;28;86964;-83
2021/05/02 14:09:54;;;;;;;55.88;53.45;;;21.60;40.00;;;;;;4938421;28;86981;-85
2021/05/02 14:12:20;;;;;;;30.38;28.92;;;;;;;;;;4937874;28;86807;-85
2021/05/02 14:14:46;;;;;;;30.52;29.13;;;19.80;43.40;;;;;;4920549;28;86713;-85
2021/05/02 14:17:12;;;;;;;18.90;17.90;;;19.30;44.60;;;;;;4939235;28;87151;-86
2021/05/02 14:19:37;;;;;;;12.50;11.80;;;19.10;44.10;;;;;;4937517;28;87361;-85
2021/05/02 14:22:03;;;;;;;14.82;13.95;;;17.90;46.10;;;;;;4930463;28;88260;-83
2021/05/02 14:24:32;;;;;;;16.38;15.48;;;17.70;47.90;;;;;;4931375;28;87302;-84
2021/05/02 14:26:58;;;;;;;12.43;11.70;;;16.90;50.20;;;;;;4941904;28;86949;-85
2021/05/02 14:29:24;;;;;;;14.95;13.95;;;;;;;;;;4922833;28;88909;-87
2021/05/02 14:31:50;;;;;;;15.18;14.27;;;15.60;51.50;;;;;;4933595;28;88222;-84
2021/05/02 14:34:17;;;;;;;33.42;31.73;;;15.60;55.50;;;;;;4942158;28;86810;-83
2021/05/02 14:36:51;;;;;;;23.23;21.98;;;14.90;57.40;;;;;;4930555;28;86308;-86
2021/05/02 14:39:17;;;;;;;43.63;41.63;;;14.90;58.80;;;;;;4923358;28;87682;-84
2021/05/02 14:41:43;;;;;;;41.15;39.15;;;;;;;;;;4923651;28;87222;-86
2021/05/02 14:44:09;;;;;;;18.00;17.00;;;14.20;67.20;;;;;;4933115;28;87787;-84
2021/05/02 14:46:34;;;;;;;32.47;30.75;;;13.90;64.90;;;;;;4928697;28;86966;-83
2021/05/02 14:49:00;;;;;;;17.30;16.25;;;13.60;65.60;;;;;;4927029;28;87157;-84
2021/05/02 14:51:26;;;;;;;20.13;19.05;;;;;;;;;;4925481;28;86971;-84
2021/05/02 14:54:06;;;;;;;14.93;14.02;;;13.50;67.70;;;;;;4928194;28;86713;-84
2021/05/02 14:56:33;;;;;;;14.82;13.63;;;13.50;70.80;;;;;;4925692;28;86898;-83
2021/05/02 14:58:59;;;;;;;16.00;14.80;;;;;;;;;;4925367;28;87328;-85
2021/05/02 15:01:25;;;;;;;17.25;16.13;;;13.30;82.10;;;;;;4926859;28;87114;-84
2021/05/02 15:03:51;;;;;;;14.10;13.15;;;;;;;;;;4926281;28;86971;-82
2021/05/02 15:06:17;;;;;;;34.03;32.22;;;11.40;93.90;;;;;;4926092;28;86545;-84
2021/05/02 15:08:43;;;;;;;13.43;12.38;;;;;;;;;;4925552;28;88705;-83
2021/05/02 15:11:09;;;;;;;17.67;16.58;;;;;;;;;;4945666;28;88065;-84
2021/05/02 15:13:36;;;;;;;13.55;12.55;;;;;;;;;;4913537;28;86979;-84
2021/05/02 15:16:05;;;;;;;13.60;12.60;;;10.30;99.90;;;;;;4927860;28;86927;-85
2021/05/02 15:18:31;;;;;;;12.20;11.30;;;;;;;;;;4933189;28;88663;-84
2021/05/02 15:20:57;;;;;;;14.98;13.98;;;;;;;;;;4944872;28;86837;-83
2021/05/02 15:23:24;;;;;;;30.10;28.50;;;;;;;;;;4945609;28;86943;-85
2021/05/02 15:25:50;;;;;;;17.88;16.42;;;10.10;99.90;;;;;;4938179;28;85879;-84
2021/05/02 15:28:16;;;;;;;17.38;16.35;;;;;;;;;;4924771;28;87691;-84
2021/05/02 15:30:55;;;;;;;14.80;13.60;;;10.50;99.90;;;;;;4938505;28;87070;-82
2021/05/02 15:33:23;;;;;;;15.90;14.80;;;10.30;99.90;;;;;;4925826;28;87930;-86
2021/05/02 15:35:50;;;;;;;15.43;14.23;;;10.70;99.90;;;;;;4925152;28;87222;-83
2021/05/02 15:38:17;;;;;;;17.17;15.98;;;;;;;;;;4925954;28;87475;-82
2021/05/02 15:40:43;;;;;;;17.67;16.40;;;;;;;;;;4926205;28;87018;-83
2021/05/02 15:43:10;;;;;;;17.90;16.45;;;10.30;99.90;;;;;;4930289;28;86892;-83
2021/05/02 15:45:36;;;;;;;16.77;15.48;;;10.30;99.90;;;;;;4925612;28;86756;-81
2021/05/02 15:48:02;;;;;;;20.15;18.75;;;10.20;99.90;;;;;;4915121;28;87228;-83
2021/05/02 15:50:28;;;;;;;14.70;13.60;;;10.30;99.90;;;;;;4925098;28;87900;-82
2021/05/02 15:52:54;;;;;;;16.48;15.23;;;9.80;99.90;;;;;;4924040;28;87096;-83
2021/05/02 15:55:20;;;;;;;17.80;16.40;;;10.40;99.90;;;;;;4924649;28;86901;-84
2021/05/02 15:57:46;;;;;;;20.40;19.00;;;;;;;;;;4923418;28;88284;-86
2021/05/02 16:00:12;;;;;;;17.92;16.77;;;10.00;99.90;;;;;;4926345;28;87889;-86
2021/05/02 16:02:38;;;;;;;17.08;15.88;;;10.00;99.90;;;;;;4934619;28;86962;-85
2021/05/02 16:05:05;;;;;;;17.65;16.45;;;9.90;99.90;;;;;;4937350;28;86960;-85
2021/05/02 16:07:31;;;;;;;18.17;17.02;;;9.80;99.90;;;;;;4924862;28;87687;-82
2021/05/02 16:09:58;;;;;;;19.45;18.15;;;9.60;99.90;;;;;;4926667;28;86895;-83
2021/05/02 16:12:24;;;;;;;18.45;17.15;;;;;;;;;;4938958;28;86941;-83
2021/05/02 16:14:50;;;;;;;22.60;21.20;;;9.60;99.90;;;;;;4927343;28;86231;-84
2021/05/02 16:17:16;;;;;;;23.42;22.02;;;;;;;;;;4924749;28;87837;-83
2021/05/02 16:20:24;;;;;;;18.60;17.40;;;9.80;99.90;;;;;;4931917;28;86877;-84
2021/05/02 16:22:50;;;;;;;17.05;15.85;;;;;;;;;;4929912;28;88133;-82
2021/05/02 16:25:16;;;;;;;17.23;15.68;;;;;;;;;;4936173;28;87345;-86
2021/05/02 16:27:42;;;;;;;16.25;15.05;;;;;;;;;;4932144;28;87571;-85
2021/05/02 16:30:09;;;;;;;13.93;12.90;;;9.70;99.90;;;;;;4946152;28;86864;-84
2021/05/02 16:32:35;;;;;;;15.02;13.93;;;;;;;;;;4933317;28;86686;-85
2021/05/02 16:35:04;;;;;;;15.70;14.50;;;9.80;99.90;;;;;;4930405;28;86745;-84
2021/05/02 16:37:30;;;;;;;16.30;15.00;;;;;;;;;;4932194;28;87007;-82
2021/05/02 16:39:56;;;;;;;16.98;15.77;;;;;;;;;;4931094;28;87539;-83
2021/05/02 16:42:22;;;;;;;15.93;14.73;;;9.70;99.90;;;;;;4933658;28;87563;-83
2021/05/02 16:44:48;;;;;;;17.13;15.88;;;;;;;;;;4931058;28;86706;-83
2021/05/02 16:47:15;;;;;;;12.38;11.38;;;9.70;99.90;;;;;;4931976;28;88712;-84
2021/05/02 16:49:43;;;;;;;13.27;12.25;;;9.30;99.90;;;;;;4945825;28;88401;-84
2021/05/02 16:52:09;;;;;;;16.00;14.65;;;;;;;;;;4940355;28;86933;-84
2021/05/02 16:54:35;;;;;;;29.67;22.48;;;;;;;;;;4938367;28;86834;-83
2021/05/02 16:57:01;;;;;;;59.53;29.48;;;;;;;;;;4944135;28;87196;-85
2021/05/02 16:59:27;;;;;;;27.05;21.10;;;;;;;;;;4930359;28;87411;-85
2021/05/02 17:01:53;;;;;;;17.17;15.68;;;;;;;;;;4930359;28;86941;-83
2021/05/02 17:04:19;;;;;;;15.32;14.23;;;;;;;;;;4930280;28;86179;-85
2021/05/02 17:06:45;;;;;;;12.95;11.98;;;;;;;;;;4929968;28;88341;-84
2021/05/02 17:09:11;;;;;;;15.07;13.98;;;;;;;;;;4931042;28;87697;-84
2021/05/02 17:11:37;;;;;;;13.75;12.65;;;;;;;;;;4924168;28;87804;-86